createdAt,value
2019-05-13T00:04:27.998Z,12.30
2019-05-13T00:09:51.494Z,12.30
2019-05-13T00:15:15.925Z,12.20
2019-05-13T00:20:39.623Z,12.00
2019-05-13T00:26:03.757Z,12.10
2019-05-13T00:31:33.535Z,11.80
2019-05-13T00:37:08.944Z,11.80
2019-05-13T00:42:24.602Z,11.90
2019-05-13T00:47:47.971Z,11.70
2019-05-13T00:53:13.325Z,11.80
2019-05-13T00:58:37.977Z,11.80
2019-05-13T01:04:04.090Z,11.80
2019-05-13T01:09:27.782Z,11.70
2019-05-13T01:14:53.455Z,11.60
2019-05-13T01:20:17.069Z,11.60
2019-05-13T01:25:40.497Z,11.70
2019-05-13T01:31:04.967Z,11.40
2019-05-13T01:36:28.036Z,11.00
2019-05-13T01:41:51.047Z,11.10
2019-05-13T01:47:15.134Z,11.00
2019-05-13T01:52:38.515Z,11.10
2019-05-13T01:58:04.151Z,11.20
2019-05-13T02:03:26.763Z,11.20
2019-05-13T02:08:51.036Z,11.40
2019-05-13T02:14:16.358Z,11.10
2019-05-13T02:19:44.083Z,11.00
2019-05-13T02:25:09.765Z,11.10
2019-05-13T02:30:34.952Z,11.00
2019-05-13T02:35:59.034Z,10.90
2019-05-13T02:41:22.922Z,10.30
2019-05-13T02:46:46.254Z,10.40
2019-05-13T02:52:12.990Z,10.20
2019-05-13T02:57:34.665Z,10.50
2019-05-13T03:02:58.675Z,10.60
2019-05-13T03:08:35.277Z,10.60
2019-05-13T03:13:47.780Z,10.70
2019-05-13T03:19:13.565Z,10.80
2019-05-13T03:24:37.192Z,10.80
2019-05-13T03:30:04.219Z,10.60
2019-05-13T03:35:27.783Z,10.60
2019-05-13T03:40:52.708Z,10.70
2019-05-13T03:46:18.090Z,10.70
2019-05-13T03:51:42.859Z,10.60
2019-05-13T03:57:07.134Z,10.70
2019-05-13T04:02:32.590Z,10.60
2019-05-13T04:07:55.768Z,10.70
2019-05-13T04:13:23.004Z,10.60
2019-05-13T04:18:44.195Z,10.70
2019-05-13T04:24:07.621Z,10.70
2019-05-13T04:29:32.986Z,10.80
2019-05-13T04:34:57.139Z,10.90
2019-05-13T04:40:23.061Z,11.10
2019-05-13T04:45:47.443Z,11.30
2019-05-13T04:51:13.591Z,11.50
2019-05-13T04:56:35.849Z,11.60
2019-05-13T05:02:40.126Z,11.60
2019-05-13T05:08:27.991Z,11.70
2019-05-13T05:14:06.159Z,11.70
2019-05-13T05:20:03.627Z,11.80
2019-05-13T05:25:54.722Z,11.80
2019-05-13T05:31:35.456Z,12.00
2019-05-13T05:37:31.229Z,12.20
2019-05-13T05:42:56.629Z,12.20
2019-05-13T05:48:22.763Z,12.30
2019-05-13T05:53:51.670Z,12.30
2019-05-13T05:59:14.455Z,12.40
2019-05-13T06:04:38.015Z,12.70
2019-05-13T06:10:02.269Z,12.90
2019-05-13T06:15:26.197Z,12.80
2019-05-13T06:20:51.234Z,12.80
2019-05-13T06:26:17.216Z,12.90
2019-05-13T06:31:41.929Z,13.30
2019-05-13T06:37:06.234Z,13.50
2019-05-13T06:42:32.282Z,13.80
2019-05-13T06:47:54.696Z,14.20
2019-05-13T06:53:17.763Z,14.70
2019-05-13T06:58:41.744Z,15.20
2019-05-13T07:04:06.950Z,14.90
2019-05-13T07:09:32.338Z,15.40
2019-05-13T07:14:56.442Z,15.20
2019-05-13T07:20:22.598Z,15.90
2019-05-13T07:25:44.735Z,16.60
2019-05-13T07:31:11.577Z,17.20
2019-05-13T07:36:36.647Z,18.00
2019-05-13T07:42:05.060Z,18.50
2019-05-13T07:47:25.451Z,17.60
2019-05-13T07:53:06.826Z,17.60
2019-05-13T08:05:27.642Z,24.30
2019-05-13T08:11:03.111Z,19.80
2019-05-13T08:16:26.798Z,20.70
2019-05-13T08:21:51.382Z,20.90
2019-05-13T08:27:14.909Z,21.60
2019-05-13T08:32:49.111Z,21.30
2019-05-13T08:52:12.217Z,22.20
2019-05-13T09:11:41.955Z,22.80
2019-05-13T09:36:32.334Z,24.20
2019-05-13T09:49:27.853Z,24.20
2019-05-13T09:55:28.947Z,24.70
2019-05-13T10:07:50.368Z,25.00
2019-05-13T10:13:15.663Z,25.60
2019-05-13T10:18:41.711Z,25.20
2019-05-13T10:24:04.676Z,26.10
2019-05-13T10:29:28.679Z,26.10
2019-05-13T10:34:53.931Z,26.00
2019-05-13T10:40:17.522Z,25.30
2019-05-13T10:45:41.767Z,24.50
2019-05-13T10:51:05.595Z,26.60
2019-05-13T10:56:32.525Z,27.00
2019-05-13T11:01:54.480Z,27.60
2019-05-13T11:07:18.575Z,26.50
2019-05-13T11:12:42.757Z,27.40
2019-05-13T11:18:06.519Z,27.20
2019-05-13T11:23:44.390Z,26.90
2019-05-13T11:29:51.779Z,26.50
2019-05-13T11:35:14.283Z,27.40
2019-05-13T11:40:37.760Z,27.20
2019-05-13T11:46:02.415Z,27.40
2019-05-13T11:51:26.602Z,27.10
2019-05-13T11:57:00.823Z,26.80
2019-05-13T12:02:15.141Z,27.20
2019-05-13T12:07:38.825Z,26.50
2019-05-13T12:13:03.843Z,26.80
2019-05-13T12:18:27.423Z,27.40
2019-05-13T12:23:52.691Z,28.00
2019-05-13T12:29:19.226Z,27.50
2019-05-13T12:34:45.646Z,28.30
2019-05-13T12:40:06.516Z,28.70
2019-05-13T12:45:30.459Z,28.50
2019-05-13T12:50:54.392Z,28.30
2019-05-13T12:56:18.040Z,29.40
2019-05-13T13:01:42.211Z,28.70
2019-05-13T13:07:06.787Z,28.30
2019-05-13T13:12:36.098Z,28.50
2019-05-13T13:17:56.072Z,28.10
2019-05-13T13:23:23.141Z,28.20
2019-05-13T13:28:45.091Z,27.90
2019-05-13T13:34:13.602Z,28.00
2019-05-13T13:39:33.881Z,28.70
2019-05-13T13:44:57.915Z,28.30
2019-05-13T13:50:24.507Z,28.50
2019-05-13T13:55:46.680Z,28.30
2019-05-13T14:01:18.140Z,28.70
2019-05-13T14:12:02.174Z,28.40
2019-05-13T14:17:26.923Z,29.00
2019-05-13T14:22:54.486Z,28.60
2019-05-13T14:28:17.492Z,28.40
2019-05-13T14:33:42.484Z,28.70
2019-05-13T14:39:07.415Z,28.00
2019-05-13T14:44:32.507Z,28.00
2019-05-13T14:49:58.351Z,27.90
2019-05-13T14:55:22.716Z,27.40
2019-05-13T15:01:08.208Z,26.60
2019-05-13T15:06:13.845Z,26.70
2019-05-13T15:11:37.494Z,26.50
2019-05-13T15:17:06.860Z,26.40
2019-05-13T15:22:26.240Z,26.60
2019-05-13T15:27:52.547Z,25.70
2019-05-13T15:33:14.498Z,25.50
2019-05-13T15:38:38.561Z,25.70
2019-05-13T15:44:03.385Z,25.50
2019-05-13T15:49:27.088Z,24.60
2019-05-13T15:54:52.209Z,25.10
2019-05-13T16:00:15.824Z,25.00
2019-05-13T16:05:39.435Z,25.90
2019-05-13T16:11:03.069Z,26.20
2019-05-13T16:16:26.680Z,25.60
2019-05-13T16:21:51.827Z,24.30
2019-05-13T16:27:14.815Z,23.10
2019-05-13T16:32:38.156Z,23.40
2019-05-13T16:38:01.972Z,22.90
2019-05-13T16:43:25.675Z,23.10
2019-05-13T16:48:49.895Z,23.60
2019-05-13T16:54:13.559Z,23.20
2019-05-13T16:59:36.952Z,22.60
2019-05-13T17:05:01.453Z,21.60
2019-05-13T17:10:25.606Z,20.70
2019-05-13T17:15:49.284Z,20.40
2019-05-13T17:21:13.234Z,21.00
2019-05-13T17:26:37.247Z,20.70
2019-05-13T17:32:02.446Z,20.80
2019-05-13T17:37:26.734Z,20.90
2019-05-13T17:42:49.909Z,21.10
2019-05-13T17:48:26.009Z,21.00
2019-05-13T17:53:38.284Z,20.90
2019-05-13T17:59:02.311Z,20.00
2019-05-13T18:04:26.311Z,20.00
2019-05-13T18:09:51.987Z,19.50
2019-05-13T18:15:15.044Z,19.60
2019-05-13T18:20:38.948Z,19.10
2019-05-13T18:26:02.491Z,19.60
2019-05-13T18:31:26.424Z,19.40
2019-05-13T18:36:51.589Z,19.60
2019-05-13T18:42:15.271Z,19.10
2019-05-13T18:47:39.315Z,18.90
2019-05-13T18:53:03.068Z,18.50
2019-05-13T18:58:26.811Z,18.20
2019-05-13T19:03:50.738Z,18.20
2019-05-13T19:09:14.594Z,18.10
2019-05-13T19:14:38.050Z,17.90
2019-05-13T19:20:01.935Z,17.70
2019-05-13T19:30:48.799Z,17.20
2019-05-13T19:41:36.193Z,17.10
2019-05-13T19:52:26.582Z,16.90
2019-05-13T19:57:51.743Z,16.80
2019-05-13T20:03:15.301Z,16.90
2019-05-13T20:08:38.715Z,16.10
2019-05-13T20:14:02.207Z,16.20
2019-05-13T20:19:26.224Z,16.10
2019-05-13T20:24:51.405Z,16.10
2019-05-13T20:35:42.244Z,15.70
2019-05-13T20:41:06.300Z,15.60
2019-05-13T20:46:32.528Z,15.40
2019-05-13T20:51:57.586Z,15.20
2019-05-13T20:57:22.189Z,15.20
2019-05-13T21:02:45.343Z,15.20
2019-05-13T21:08:08.536Z,15.30
2019-05-13T21:13:32.947Z,15.20
2019-05-13T21:18:56.508Z,15.00
2019-05-13T21:24:21.361Z,14.70
2019-05-13T21:29:45.579Z,14.50
2019-05-13T21:35:11.836Z,14.60
2019-05-13T21:40:46.952Z,14.60
2019-05-13T21:46:12.040Z,14.60
2019-05-13T21:51:35.935Z,14.60
2019-05-13T21:56:59.232Z,14.20
2019-05-13T22:02:23.390Z,14.10
2019-05-13T22:07:47.095Z,14.10
2019-05-13T22:13:11.854Z,13.80
2019-05-13T22:18:35.628Z,13.70
2019-05-13T22:23:59.602Z,13.70
2019-05-13T22:29:23.616Z,13.60
2019-05-13T22:34:47.280Z,13.20
2019-05-13T22:40:11.294Z,13.90
2019-05-13T22:45:35.192Z,13.90
2019-05-13T22:51:01.169Z,13.50
2019-05-13T22:56:24.131Z,13.40
2019-05-13T23:01:47.283Z,13.70
2019-05-13T23:07:11.747Z,13.90
2019-05-13T23:12:35.155Z,13.80
2019-05-13T23:17:59.113Z,13.70
2019-05-13T23:23:23.366Z,13.60
2019-05-13T23:28:47.227Z,13.60
2019-05-13T23:34:12.077Z,13.60
2019-05-13T23:39:35.847Z,13.70
2019-05-13T23:44:59.895Z,13.70
2019-05-13T23:50:23.843Z,13.10
2019-05-13T23:55:47.327Z,12.80
